createdAt,value
2023-01-29T00:01:54.793Z,-1.02
2023-01-29T00:04:21.858Z,-1.06
2023-01-29T00:06:48.867Z,-1.09
2023-01-29T00:09:15.807Z,-1.11
2023-01-29T00:11:42.704Z,-1.12
2023-01-29T00:14:09.693Z,-1.14
2023-01-29T00:16:36.593Z,-1.15
2023-01-29T00:19:03.897Z,-1.18
2023-01-29T00:21:32.191Z,-1.21
2023-01-29T00:23:59.931Z,-1.23
2023-01-29T00:26:27.200Z,-1.25
2023-01-29T00:28:54.206Z,-1.26
2023-01-29T00:31:23.761Z,-1.27
2023-01-29T00:33:50.694Z,-1.30
2023-01-29T00:36:18.719Z,-1.32
2023-01-29T00:38:46.487Z,-1.32
2023-01-29T00:41:32.987Z,-1.32
2023-01-29T00:44:19.274Z,-1.32
2023-01-29T00:46:46.349Z,-1.35
2023-01-29T00:49:13.679Z,-1.37
2023-01-29T00:51:41.588Z,-1.39
2023-01-29T00:54:11.035Z,-1.43
2023-01-29T00:56:39.195Z,-1.46
2023-01-29T00:59:06.383Z,-1.48
2023-01-29T01:01:50.714Z,-1.49
2023-01-29T01:04:17.749Z,-1.47
2023-01-29T01:06:44.910Z,-1.46
2023-01-29T01:09:30.743Z,-1.46
2023-01-29T01:11:57.656Z,-1.47
2023-01-29T01:14:25.416Z,-1.49
2023-01-29T01:16:52.355Z,-1.51
2023-01-29T01:19:19.440Z,-1.50
2023-01-29T01:21:48.390Z,-1.50
2023-01-29T01:24:16.038Z,-1.49
2023-01-29T01:26:43.575Z,-1.48
2023-01-29T01:29:10.500Z,-1.48
2023-01-29T01:31:37.574Z,-1.48
2023-01-29T01:34:04.708Z,-1.51
2023-01-29T01:36:32.407Z,-1.52
2023-01-29T01:38:59.427Z,-1.51
2023-01-29T01:41:27.553Z,-1.50
2023-01-29T01:43:57.557Z,-1.48
2023-01-29T01:46:27.627Z,-1.47
2023-01-29T01:48:59.810Z,-1.50
2023-01-29T01:51:29.973Z,-1.51
2023-01-29T01:54:02.674Z,-1.51
2023-01-29T01:56:38.605Z,-1.52
2023-01-29T01:59:07.011Z,-1.53
2023-01-29T02:01:34.416Z,-1.52
2023-01-29T02:04:22.624Z,-1.51
2023-01-29T02:07:08.287Z,-1.49
2023-01-29T02:09:40.426Z,-1.50
2023-01-29T02:12:09.994Z,-1.50
2023-01-29T02:14:40.279Z,-1.49
2023-01-29T02:17:07.746Z,-1.49
2023-01-29T02:19:45.733Z,-1.48
2023-01-29T02:22:30.688Z,-1.47
2023-01-29T02:25:12.204Z,-1.48
2023-01-29T02:27:58.990Z,-1.47
2023-01-29T02:30:34.666Z,-1.45
2023-01-29T02:33:07.715Z,-1.46
2023-01-29T02:35:42.671Z,-1.44
2023-01-29T02:38:18.963Z,-1.43
2023-01-29T02:40:51.977Z,-1.41
2023-01-29T02:43:30.351Z,-1.41
2023-01-29T02:46:07.429Z,-1.42
2023-01-29T02:48:44.731Z,-1.42
2023-01-29T02:51:20.287Z,-1.45
2023-01-29T02:53:55.103Z,-1.43
2023-01-29T02:56:29.035Z,-1.46
2023-01-29T02:59:01.539Z,-1.47
2023-01-29T03:01:34.800Z,-1.47
2023-01-29T03:04:08.101Z,-1.46
2023-01-29T03:06:40.120Z,-1.45
2023-01-29T03:09:12.333Z,-1.46
2023-01-29T03:11:43.563Z,-1.46
2023-01-29T03:14:14.430Z,-1.46
2023-01-29T03:16:46.956Z,-1.46
2023-01-29T03:19:17.763Z,-1.47
2023-01-29T03:21:55.460Z,-1.49
2023-01-29T03:24:45.400Z,-1.50
2023-01-29T03:27:33.811Z,-1.50
2023-01-29T03:30:20.505Z,-1.49
2023-01-29T03:32:52.457Z,-1.46
2023-01-29T03:35:36.866Z,-1.43
2023-01-29T03:38:07.477Z,-1.42
2023-01-29T03:40:44.365Z,-1.41
2023-01-29T03:43:16.223Z,-1.37
2023-01-29T03:45:58.134Z,-1.36
2023-01-29T03:48:35.026Z,-1.34
2023-01-29T03:51:10.560Z,-1.29
2023-01-29T03:53:46.155Z,-1.25
2023-01-29T03:56:26.627Z,-1.23
2023-01-29T03:58:58.529Z,-1.25
2023-01-29T04:01:34.382Z,-1.27
2023-01-29T04:04:10.313Z,-1.26
2023-01-29T04:06:41.859Z,-1.22
2023-01-29T04:09:14.952Z,-1.22
2023-01-29T04:11:49.392Z,-1.19
2023-01-29T04:14:17.540Z,-1.19
2023-01-29T04:16:48.760Z,-1.18
2023-01-29T04:19:31.358Z,-1.19
2023-01-29T04:22:06.596Z,-1.21
2023-01-29T04:24:34.718Z,-1.19
2023-01-29T04:27:17.778Z,-1.17
2023-01-29T04:29:58.593Z,-1.15
2023-01-29T04:32:33.186Z,-1.15
2023-01-29T04:35:17.994Z,-1.16
2023-01-29T04:37:51.841Z,-1.15
2023-01-29T04:40:27.111Z,-1.15
2023-01-29T04:43:05.271Z,-1.16
2023-01-29T04:45:41.700Z,-1.14
2023-01-29T04:48:18.353Z,-1.12
2023-01-29T04:50:48.122Z,-1.10
2023-01-29T04:53:20.615Z,-1.11
2023-01-29T04:55:51.066Z,-1.11
2023-01-29T04:58:31.482Z,-1.13
2023-01-29T05:01:00.049Z,-1.12
2023-01-29T05:03:29.597Z,-1.12
2023-01-29T05:05:59.310Z,-1.13
2023-01-29T05:08:29.309Z,-1.13
2023-01-29T05:10:58.179Z,-1.12
2023-01-29T05:13:26.994Z,-1.12
2023-01-29T05:15:58.967Z,-1.11
2023-01-29T05:18:25.999Z,-1.12
2023-01-29T05:20:57.670Z,-1.15
2023-01-29T05:23:25.325Z,-1.15
2023-01-29T05:25:53.097Z,-1.15
2023-01-29T05:28:20.536Z,-1.15
2023-01-29T05:30:49.646Z,-1.15
2023-01-29T05:33:18.389Z,-1.15
2023-01-29T05:35:45.662Z,-1.13
2023-01-29T05:38:13.150Z,-1.13
2023-01-29T05:40:40.700Z,-1.14
2023-01-29T05:43:15.115Z,-1.15
2023-01-29T05:45:41.867Z,-1.15
2023-01-29T05:48:08.852Z,-1.15
2023-01-29T05:50:36.181Z,-1.15
2023-01-29T05:53:04.148Z,-1.14
2023-01-29T05:55:31.525Z,-1.14
2023-01-29T05:57:58.739Z,-1.15
2023-01-29T06:00:25.988Z,-1.15
2023-01-29T06:02:53.047Z,-1.16
2023-01-29T06:05:20.035Z,-1.14
2023-01-29T06:07:47.102Z,-1.12
2023-01-29T06:10:16.129Z,-1.08
2023-01-29T06:12:43.430Z,-1.08
2023-01-29T06:15:13.454Z,-1.10
2023-01-29T06:17:40.371Z,-1.12
2023-01-29T06:20:09.642Z,-1.12
2023-01-29T06:22:36.840Z,-1.10
2023-01-29T06:25:04.400Z,-1.09
2023-01-29T06:27:31.209Z,-1.07
2023-01-29T06:29:58.142Z,-1.08
2023-01-29T06:32:25.215Z,-1.06
2023-01-29T06:34:53.470Z,-1.04
2023-01-29T06:37:20.737Z,-1.04
2023-01-29T06:39:47.742Z,-1.03
2023-01-29T06:42:14.541Z,-1.01
2023-01-29T06:44:41.339Z,-1.02
2023-01-29T06:47:08.625Z,-1.03
2023-01-29T06:49:35.456Z,-1.01
2023-01-29T06:52:02.483Z,-0.99
2023-01-29T06:54:29.514Z,-0.97
2023-01-29T06:56:56.468Z,-0.97
2023-01-29T06:59:23.249Z,-0.98
2023-01-29T07:01:50.400Z,-1.00
2023-01-29T07:04:17.327Z,-0.98
2023-01-29T07:06:44.176Z,-0.98
2023-01-29T07:09:12.518Z,-0.95
2023-01-29T07:11:39.568Z,-0.95
2023-01-29T07:14:06.376Z,-0.93
2023-01-29T07:16:34.100Z,-0.92
2023-01-29T07:19:01.130Z,-0.89
2023-01-29T07:21:28.261Z,-0.90
2023-01-29T07:23:55.299Z,-0.90
2023-01-29T07:26:22.344Z,-0.87
2023-01-29T07:28:55.426Z,-0.88
2023-01-29T07:31:26.542Z,-0.89
2023-01-29T07:33:53.541Z,-0.87
2023-01-29T07:36:20.480Z,-0.82
2023-01-29T07:38:52.093Z,-0.79
2023-01-29T07:41:19.534Z,-0.80
2023-01-29T07:43:46.731Z,-0.78
2023-01-29T07:46:13.858Z,-0.78
2023-01-29T07:48:40.835Z,-0.80
2023-01-29T07:51:08.589Z,-0.77
2023-01-29T07:53:36.174Z,-0.74
2023-01-29T07:56:03.416Z,-0.70
2023-01-29T07:58:30.475Z,-0.68
2023-01-29T08:00:57.764Z,-0.62
2023-01-29T08:03:24.550Z,-0.61
2023-01-29T08:05:51.474Z,-0.58
2023-01-29T08:08:19.450Z,-0.56
2023-01-29T08:10:46.369Z,-0.54
2023-01-29T08:13:13.439Z,-0.50
2023-01-29T08:15:40.229Z,-0.52
2023-01-29T08:18:07.576Z,-0.51
2023-01-29T08:20:35.034Z,-0.51
2023-01-29T08:23:06.169Z,-0.51
2023-01-29T08:25:33.728Z,-0.48
2023-01-29T08:28:01.741Z,-0.46
2023-01-29T08:30:29.933Z,-0.44
2023-01-29T08:32:56.838Z,-0.44
2023-01-29T08:35:24.583Z,-0.42
2023-01-29T08:37:56.505Z,-0.40
2023-01-29T08:40:23.779Z,-0.37
2023-01-29T08:42:50.574Z,-0.32
2023-01-29T08:45:18.300Z,-0.26
2023-01-29T08:47:49.753Z,-0.22
2023-01-29T08:50:17.661Z,-0.21
2023-01-29T08:52:45.138Z,-0.21
2023-01-29T08:55:13.150Z,-0.20
2023-01-29T08:57:40.424Z,-0.19
2023-01-29T09:00:09.398Z,-0.18
2023-01-29T09:02:36.467Z,-0.19
2023-01-29T09:05:03.431Z,-0.21
2023-01-29T09:07:31.582Z,-0.20
2023-01-29T09:09:58.452Z,-0.19
2023-01-29T09:12:25.390Z,-0.15
2023-01-29T09:14:52.500Z,-0.09
2023-01-29T09:17:19.585Z,-0.03
2023-01-29T09:19:46.360Z,0.01
2023-01-29T09:22:13.336Z,0.04
2023-01-29T09:24:40.801Z,0.04
2023-01-29T09:27:07.961Z,0.07
2023-01-29T09:29:37.627Z,0.09
2023-01-29T09:32:04.974Z,0.09
2023-01-29T09:34:33.693Z,0.07
2023-01-29T09:37:00.502Z,0.06
2023-01-29T09:39:27.656Z,0.04
2023-01-29T09:42:01.029Z,0.12
2023-01-29T09:44:35.009Z,0.26
2023-01-29T09:47:05.234Z,0.36
2023-01-29T09:49:37.916Z,0.44
2023-01-29T09:52:12.038Z,0.47
2023-01-29T09:54:49.916Z,0.47
2023-01-29T09:57:23.335Z,0.50
2023-01-29T09:59:50.713Z,0.52
2023-01-29T10:02:37.546Z,0.55
2023-01-29T10:05:24.533Z,0.56
2023-01-29T10:08:34.156Z,0.53
2023-01-29T10:11:08.499Z,0.52
2023-01-29T10:13:49.420Z,0.51
2023-01-29T10:16:29.100Z,0.46
2023-01-29T10:19:34.341Z,0.40
2023-01-29T10:22:14.147Z,0.31
2023-01-29T10:24:45.896Z,0.25
2023-01-29T10:27:18.299Z,0.23
2023-01-29T10:29:48.672Z,0.23
2023-01-29T10:32:19.331Z,0.21
2023-01-29T10:34:51.379Z,0.21
2023-01-29T10:37:21.802Z,0.20
2023-01-29T10:39:48.734Z,0.18
2023-01-29T10:42:30.643Z,0.11
2023-01-29T10:45:20.673Z,0.09
2023-01-29T10:48:04.926Z,0.09
2023-01-29T10:50:42.882Z,0.08
2023-01-29T10:53:28.559Z,0.07
2023-01-29T10:56:10.750Z,0.03
2023-01-29T10:58:49.798Z,0.03
2023-01-29T11:01:17.651Z,0.03
2023-01-29T11:03:45.064Z,0.03
2023-01-29T11:06:17.850Z,0.00
2023-01-29T11:08:52.910Z,0.00
2023-01-29T11:11:22.498Z,0.04
2023-01-29T11:13:57.282Z,0.06
2023-01-29T11:16:24.290Z,0.08
2023-01-29T11:19:00.374Z,0.11
2023-01-29T11:21:29.577Z,0.13
2023-01-29T11:24:12.804Z,0.15
2023-01-29T11:26:42.194Z,0.15
2023-01-29T11:29:38.740Z,0.16
2023-01-29T11:32:07.958Z,0.18
2023-01-29T11:34:34.812Z,0.22
2023-01-29T11:37:03.555Z,0.21
2023-01-29T11:39:32.186Z,0.18
2023-01-29T11:42:01.679Z,0.16
2023-01-29T11:44:36.761Z,0.16
2023-01-29T11:47:14.458Z,0.15
2023-01-29T11:49:46.068Z,0.16
2023-01-29T11:52:15.683Z,0.14
2023-01-29T11:54:50.697Z,0.12
2023-01-29T11:57:36.692Z,0.08
2023-01-29T12:00:07.926Z,0.06
2023-01-29T12:02:40.207Z,0.02
2023-01-29T12:05:16.340Z,-0.04
2023-01-29T12:07:45.818Z,-0.07
2023-01-29T12:10:33.707Z,-0.08
2023-01-29T12:13:20.341Z,-0.12
2023-01-29T12:15:48.367Z,-0.16
2023-01-29T12:18:24.149Z,-0.18
2023-01-29T12:20:58.938Z,-0.18
2023-01-29T12:23:36.608Z,-0.20
2023-01-29T12:26:10.888Z,-0.19
2023-01-29T12:28:47.814Z,-0.19
2023-01-29T12:31:30.824Z,-0.19
2023-01-29T12:34:04.215Z,-0.17
2023-01-29T12:36:37.673Z,-0.13
2023-01-29T12:39:05.061Z,-0.13
2023-01-29T12:41:45.096Z,-0.13
2023-01-29T12:44:19.478Z,-0.12
2023-01-29T12:46:52.985Z,-0.11
2023-01-29T12:49:24.382Z,-0.10
2023-01-29T12:51:59.233Z,-0.11
2023-01-29T12:54:33.534Z,-0.11
2023-01-29T12:57:05.073Z,-0.14
2023-01-29T12:59:38.173Z,-0.17
2023-01-29T13:02:16.189Z,-0.17
2023-01-29T13:04:47.866Z,-0.17
2023-01-29T13:07:23.925Z,-0.19
2023-01-29T13:09:56.661Z,-0.21
2023-01-29T13:12:27.101Z,-0.27
2023-01-29T13:15:01.627Z,-0.31
2023-01-29T13:17:33.916Z,-0.31
2023-01-29T13:20:06.451Z,-0.34
2023-01-29T13:22:38.178Z,-0.36
2023-01-29T13:25:06.747Z,-0.36
2023-01-29T13:27:36.320Z,-0.36
2023-01-29T13:30:04.472Z,-0.36
2023-01-29T13:32:36.289Z,-0.38
2023-01-29T13:35:07.951Z,-0.37
2023-01-29T13:37:41.013Z,-0.37
2023-01-29T13:40:20.654Z,-0.39
2023-01-29T13:42:50.517Z,-0.40
2023-01-29T13:45:24.807Z,-0.41
2023-01-29T13:47:53.610Z,-0.42
2023-01-29T13:50:31.282Z,-0.43
2023-01-29T13:53:02.163Z,-0.45
2023-01-29T13:55:32.707Z,-0.45
2023-01-29T13:58:01.389Z,-0.46
2023-01-29T14:01:01.665Z,-0.48
2023-01-29T14:04:03.657Z,-0.53
2023-01-29T14:06:45.617Z,-0.59
2023-01-29T14:09:57.333Z,-0.62
2023-01-29T14:12:51.719Z,-0.64
2023-01-29T14:15:30.827Z,-0.66
2023-01-29T14:18:25.355Z,-0.67
2023-01-29T14:21:07.041Z,-0.70
2023-01-29T14:23:51.525Z,-0.71
2023-01-29T14:26:34.409Z,-0.71
2023-01-29T14:29:06.220Z,-0.71
2023-01-29T14:31:38.548Z,-0.70
2023-01-29T14:34:09.201Z,-0.69
2023-01-29T14:36:43.546Z,-0.71
2023-01-29T14:39:25.411Z,-0.70
2023-01-29T14:41:54.185Z,-0.69
2023-01-29T14:44:58.232Z,-0.68
2023-01-29T14:47:55.623Z,-0.68
2023-01-29T14:50:49.024Z,-0.69
2023-01-29T14:53:22.325Z,-0.69
2023-01-29T14:55:55.879Z,-0.69
2023-01-29T14:58:29.297Z,-0.69
2023-01-29T15:00:59.765Z,-0.69
2023-01-29T15:03:37.513Z,-0.68
2023-01-29T15:06:05.715Z,-0.68
2023-01-29T15:08:40.503Z,-0.68
2023-01-29T15:11:33.131Z,-0.68
2023-01-29T15:14:23.835Z,-0.68
2023-01-29T15:17:00.668Z,-0.68
2023-01-29T15:19:35.673Z,-0.67
2023-01-29T15:22:10.773Z,-0.66
2023-01-29T15:24:38.174Z,-0.65
2023-01-29T15:27:07.684Z,-0.65
2023-01-29T15:29:35.189Z,-0.65
2023-01-29T15:32:04.255Z,-0.64
2023-01-29T15:34:31.646Z,-0.64
2023-01-29T15:36:59.117Z,-0.65
2023-01-29T15:39:28.566Z,-0.63
2023-01-29T15:42:13.424Z,-0.63
2023-01-29T15:44:47.573Z,-0.64
2023-01-29T15:47:17.670Z,-0.62
2023-01-29T15:49:47.712Z,-0.62
2023-01-29T15:52:21.885Z,-0.62
2023-01-29T15:55:02.324Z,-0.60
2023-01-29T15:57:37.420Z,-0.58
2023-01-29T16:00:05.245Z,-0.56
2023-01-29T16:02:42.846Z,-0.54
2023-01-29T16:05:15.811Z,-0.55
2023-01-29T16:07:43.854Z,-0.57
2023-01-29T16:10:18.295Z,-0.58
2023-01-29T16:12:47.565Z,-0.58
2023-01-29T16:15:22.626Z,-0.57
2023-01-29T16:17:50.887Z,-0.57
2023-01-29T16:20:34.763Z,-0.56
2023-01-29T16:23:02.413Z,-0.56
2023-01-29T16:25:31.326Z,-0.57
2023-01-29T16:27:58.767Z,-0.57
2023-01-29T16:30:29.015Z,-0.57
2023-01-29T16:33:01.737Z,-0.57
2023-01-29T16:35:28.924Z,-0.57
2023-01-29T16:38:04.352Z,-0.57
2023-01-29T16:40:33.570Z,-0.57
2023-01-29T16:43:22.844Z,-0.55
2023-01-29T16:46:04.819Z,-0.53
2023-01-29T16:48:34.792Z,-0.54
2023-01-29T16:51:13.632Z,-0.54
2023-01-29T16:53:40.932Z,-0.54
2023-01-29T16:56:10.143Z,-0.55
2023-01-29T16:58:37.483Z,-0.55
2023-01-29T17:01:09.041Z,-0.54
2023-01-29T17:03:37.324Z,-0.53
2023-01-29T17:06:14.598Z,-0.53
2023-01-29T17:08:44.217Z,-0.51
2023-01-29T17:11:12.776Z,-0.50
2023-01-29T17:13:43.021Z,-0.51
2023-01-29T17:16:27.880Z,-0.52
2023-01-29T17:18:55.991Z,-0.53
2023-01-29T17:21:24.897Z,-0.52
2023-01-29T17:23:51.872Z,-0.50
2023-01-29T17:26:19.163Z,-0.48
2023-01-29T17:28:47.081Z,-0.47
2023-01-29T17:31:13.991Z,-0.47
2023-01-29T17:33:44.239Z,-0.48
2023-01-29T17:36:14.695Z,-0.45
2023-01-29T17:38:42.187Z,-0.45
2023-01-29T17:41:13.379Z,-0.43
2023-01-29T17:43:40.241Z,-0.43
2023-01-29T17:46:07.688Z,-0.45
2023-01-29T17:48:34.796Z,-0.48
2023-01-29T17:51:04.605Z,-0.48
2023-01-29T17:53:45.241Z,-0.46
2023-01-29T17:56:21.820Z,-0.45
2023-01-29T17:58:48.794Z,-0.43
2023-01-29T18:01:15.681Z,-0.43
2023-01-29T18:03:42.674Z,-0.44
2023-01-29T18:06:12.565Z,-0.43
2023-01-29T18:08:40.863Z,-0.43
2023-01-29T18:11:08.111Z,-0.43
2023-01-29T18:13:36.531Z,-0.44
2023-01-29T18:16:03.508Z,-0.44
2023-01-29T18:18:30.824Z,-0.45
2023-01-29T18:20:57.708Z,-0.46
2023-01-29T18:23:24.766Z,-0.47
2023-01-29T18:25:52.791Z,-0.48
2023-01-29T18:28:20.409Z,-0.47
2023-01-29T18:30:48.023Z,-0.46
2023-01-29T18:33:15.585Z,-0.44
2023-01-29T18:35:44.241Z,-0.43
2023-01-29T18:38:11.048Z,-0.42
2023-01-29T18:40:38.047Z,-0.41
2023-01-29T18:43:05.455Z,-0.42
2023-01-29T18:45:32.609Z,-0.41
2023-01-29T18:47:59.951Z,-0.40
2023-01-29T18:50:27.544Z,-0.38
2023-01-29T18:52:55.416Z,-0.37
2023-01-29T18:55:22.682Z,-0.36
2023-01-29T18:58:28.307Z,-0.34
2023-01-29T19:00:40.394Z,-0.33
2023-01-29T19:03:07.592Z,-0.32
2023-01-29T19:05:37.516Z,-0.32
2023-01-29T19:08:12.536Z,-0.31
2023-01-29T19:10:40.622Z,-0.31
2023-01-29T19:13:07.760Z,-0.31
2023-01-29T19:15:35.817Z,-0.28
2023-01-29T19:18:04.284Z,-0.29
2023-01-29T19:20:31.082Z,-0.27
2023-01-29T19:22:58.227Z,-0.27
2023-01-29T19:25:25.133Z,-0.25
2023-01-29T19:27:52.121Z,-0.25
2023-01-29T19:30:20.233Z,-0.24
2023-01-29T19:32:47.911Z,-0.22
2023-01-29T19:35:14.777Z,-0.21
2023-01-29T19:37:41.968Z,-0.19
2023-01-29T19:40:10.800Z,-0.20
2023-01-29T19:42:38.507Z,-0.19
2023-01-29T19:45:10.162Z,-0.20
2023-01-29T19:47:41.476Z,-0.20
2023-01-29T19:50:10.329Z,-0.19
2023-01-29T19:52:50.876Z,-0.21
2023-01-29T19:55:19.717Z,-0.20
2023-01-29T19:57:47.510Z,-0.21
2023-01-29T20:00:17.556Z,-0.20
2023-01-29T20:02:44.733Z,-0.21
2023-01-29T20:05:13.373Z,-0.21
2023-01-29T20:07:42.392Z,-0.20
2023-01-29T20:10:18.246Z,-0.18
2023-01-29T20:12:46.344Z,-0.17
2023-01-29T20:15:13.627Z,-0.17
2023-01-29T20:17:40.964Z,-0.17
2023-01-29T20:20:09.454Z,-0.18
2023-01-29T20:22:36.722Z,-0.19
2023-01-29T20:25:03.567Z,-0.19
2023-01-29T20:27:31.757Z,-0.19
2023-01-29T20:29:59.789Z,-0.19
2023-01-29T20:32:26.735Z,-0.19
2023-01-29T20:34:53.525Z,-0.20
2023-01-29T20:37:20.540Z,-0.19
2023-01-29T20:39:47.596Z,-0.19
2023-01-29T20:42:14.523Z,-0.20
2023-01-29T20:44:42.069Z,-0.20
2023-01-29T20:47:09.699Z,-0.21
2023-01-29T20:49:36.908Z,-0.20
2023-01-29T20:52:03.927Z,-0.19
2023-01-29T20:54:33.375Z,-0.18
2023-01-29T20:57:00.392Z,-0.17
2023-01-29T20:59:29.120Z,-0.17
2023-01-29T21:01:56.786Z,-0.18
2023-01-29T21:04:24.060Z,-0.20
2023-01-29T21:06:51.125Z,-0.20
2023-01-29T21:09:18.073Z,-0.21
2023-01-29T21:11:45.931Z,-0.21
2023-01-29T21:14:14.229Z,-0.19
2023-01-29T21:16:41.703Z,-0.18
2023-01-29T21:19:08.549Z,-0.19
2023-01-29T21:21:37.784Z,-0.20
2023-01-29T21:24:05.035Z,-0.22
2023-01-29T21:26:32.025Z,-0.23
2023-01-29T21:28:59.490Z,-0.23
2023-01-29T21:31:26.658Z,-0.23
2023-01-29T21:33:53.497Z,-0.22
2023-01-29T21:36:20.702Z,-0.22
2023-01-29T21:38:47.541Z,-0.23
2023-01-29T21:41:14.519Z,-0.23
2023-01-29T21:43:41.836Z,-0.22
2023-01-29T21:46:12.517Z,-0.22
2023-01-29T21:48:39.983Z,-0.23
2023-01-29T21:51:07.883Z,-0.21
2023-01-29T21:53:35.169Z,-0.22
2023-01-29T21:56:04.017Z,-0.23
2023-01-29T21:58:30.944Z,-0.23
2023-01-29T22:01:36.128Z,-0.23
2023-01-29T22:03:47.386Z,-0.21
2023-01-29T22:06:14.745Z,-0.20
2023-01-29T22:08:41.571Z,-0.19
2023-01-29T22:11:10.224Z,-0.18
2023-01-29T22:13:37.684Z,-0.18
2023-01-29T22:16:06.069Z,-0.17
2023-01-29T22:18:32.944Z,-0.17
2023-01-29T22:21:02.669Z,-0.16
2023-01-29T22:23:29.968Z,-0.16
2023-01-29T22:26:03.096Z,-0.15
2023-01-29T22:28:30.018Z,-0.13
2023-01-29T22:31:01.126Z,-0.14
2023-01-29T22:33:28.066Z,-0.14
2023-01-29T22:35:57.915Z,-0.13
2023-01-29T22:38:24.784Z,-0.14
2023-01-29T22:40:53.656Z,-0.16
2023-01-29T22:43:25.956Z,-0.12
2023-01-29T22:45:53.063Z,-0.11
2023-01-29T22:48:20.559Z,-0.12
2023-01-29T22:50:53.939Z,-0.10
2023-01-29T22:53:24.096Z,-0.10
2023-01-29T22:55:57.281Z,-0.10
2023-01-29T22:58:24.354Z,-0.10
2023-01-29T23:00:53.564Z,-0.11
2023-01-29T23:03:20.474Z,-0.08
2023-01-29T23:05:47.308Z,-0.08
2023-01-29T23:08:14.660Z,-0.08
2023-01-29T23:10:43.223Z,-0.08
2023-01-29T23:13:09.980Z,-0.07
2023-01-29T23:15:36.826Z,-0.06
2023-01-29T23:18:03.680Z,-0.04
2023-01-29T23:20:30.593Z,-0.02
2023-01-29T23:22:57.625Z,0.03
2023-01-29T23:25:44.889Z,0.06
2023-01-29T23:28:10.239Z,0.08
2023-01-29T23:30:37.358Z,0.10
2023-01-29T23:33:04.620Z,0.14
2023-01-29T23:35:31.639Z,0.17
2023-01-29T23:37:58.893Z,0.19
2023-01-29T23:40:25.698Z,0.22
2023-01-29T23:42:52.567Z,0.25
2023-01-29T23:45:19.309Z,0.28
2023-01-29T23:47:46.199Z,0.29
2023-01-29T23:50:14.734Z,0.30
2023-01-29T23:52:41.661Z,0.31
2023-01-29T23:55:10.596Z,0.33
2023-01-29T23:57:37.776Z,0.35
